Time;durP1;ratioP1;P1;durP2;ratioP2;P2;SDS_P1;SDS_P2;PMS_P1;PMS_P2;Temp;Humidity;BMP_temperature;BMP_pressure;BME280_temperature;BME280_humidity;BME280_pressure;Samples;Min_cycle;Max_cycle;Signal;HPM_P1;HPM_P2
2024/01/25 00:00:41;;;;;;;11.20;3.77;;;;;;;8.05;100.00;96610.63;7402448;19;20380;-90
2024/01/25 00:03:08;;;;;;;14.33;4.07;;;;;;;8.32;100.00;96642.31;7401633;19;20420;-91
2024/01/25 00:05:36;;;;;;;10.90;4.00;;;;;;;7.99;100.00;96601.28;7402642;19;20381;-90
2024/01/25 00:08:04;;;;;;;14.47;4.00;;;;;;;8.06;100.00;96615.59;7402912;19;20353;-91
2024/01/25 00:10:31;;;;;;;13.87;4.17;;;;;;;8.35;100.00;96654.81;7402179;19;20400;-90
2024/01/25 00:12:59;;;;;;;12.97;4.23;;;;;;;8.04;100.00;96606.47;7401459;19;20369;-91
2024/01/25 00:15:27;;;;;;;10.73;5.07;;;;;;;8.01;100.00;96604.41;7402698;19;20381;-89
2024/01/25 00:17:54;;;;;;;13.90;3.67;;;;;;;7.94;100.00;96596.06;7401958;19;20401;-90
2024/01/25 00:20:22;;;;;;;20.33;4.60;;;;;;;8.00;100.00;96592.38;7401908;19;20369;-91
2024/01/25 00:22:50;;;;;;;10.10;3.57;;;;;;;8.14;100.00;96632.53;7400947;19;20421;-91
2024/01/25 00:25:17;;;;;;;12.43;4.40;;;;;;;8.22;100.00;96636.38;7401834;19;20688;-90
2024/01/25 00:27:45;;;;;;;20.90;4.27;;;;;;;7.79;100.00;96586.53;7403619;19;20364;-91
2024/01/25 00:30:12;;;;;;;13.13;5.30;;;;;;;8.18;100.00;96632.75;7399770;19;20460;-90
2024/01/25 00:32:40;;;;;;;13.70;5.23;;;;;;;8.41;100.00;96673.88;7400910;19;20401;-91
2024/01/25 00:35:10;;;;;;;17.63;4.70;;;;;;;7.43;100.00;96528.53;7402128;19;20369;-91
2024/01/25 00:37:38;;;;;;;17.07;3.40;;;;;;;8.02;100.00;96629.47;7401241;19;20389;-90
2024/01/25 00:40:09;;;;;;;13.70;3.63;;;;;;;7.01;100.00;96471.63;7403626;19;20379;-89
2024/01/25 00:42:45;;;;;;;14.70;4.10;;;;;;;7.42;100.00;96543.41;7400600;19;20393;-91
2024/01/25 00:45:13;;;;;;;15.33;4.63;;;;;;;7.93;100.00;96610.19;7401617;19;20376;-90
2024/01/25 00:47:41;;;;;;;7.50;2.87;;;;;;;7.43;100.00;96541.56;7399833;19;20377;-90
2024/01/25 00:50:09;;;;;;;15.50;3.47;;;;;;;7.41;100.00;96531.41;7398717;19;20879;-90
2024/01/25 00:52:37;;;;;;;21.33;4.30;;;;;;;7.79;100.00;96596.19;7399240;19;20429;-90
2024/01/25 00:55:05;;;;;;;16.33;3.40;;;;;;;7.40;100.00;96548.13;7402924;19;20359;-90
2024/01/25 00:57:33;;;;;;;20.80;4.73;;;;;;;8.19;100.00;96644.75;7412018;19;20377;-89
2024/01/25 01:00:02;;;;;;;15.70;5.07;;;;;;;8.29;100.00;96681.31;7428135;19;20385;-88
2024/01/25 01:02:50;;;;;;;12.37;3.93;;;;;;;8.35;100.00;96674.97;7427749;19;20409;-88
2024/01/25 01:05:18;;;;;;;20.80;5.67;;;;;;;7.51;100.00;96567.13;7405348;19;20874;-91
2024/01/25 01:07:46;;;;;;;15.60;4.90;;;;;;;7.77;100.00;96596.47;7400547;19;20394;-90
2024/01/25 01:10:14;;;;;;;11.10;3.83;;;;;;;7.78;100.00;96603.25;7398557;19;20448;-90
2024/01/25 01:12:42;;;;;;;13.63;4.17;;;;;;;7.47;100.00;96540.78;7399587;19;20929;-90
2024/01/25 01:15:09;;;;;;;15.27;4.03;;;;;;;7.80;100.00;96590.69;7399824;19;20401;-91
2024/01/25 01:17:37;;;;;;;7.37;4.43;;;;;;;7.39;100.00;96501.41;7399853;19;20382;-91
2024/01/25 01:20:05;;;;;;;24.47;4.50;;;;;;;7.73;100.00;96577.94;7401811;19;20361;-90
2024/01/25 01:22:32;;;;;;;19.30;5.10;;;;;;;8.37;100.00;96672.84;7399869;19;20466;-90
2024/01/25 01:25:00;;;;;;;18.13;4.20;;;;;;;7.67;100.00;96559.97;7399989;19;20368;-90
2024/01/25 01:27:27;;;;;;;16.10;5.47;;;;;;;7.82;100.00;96582.56;7399646;19;20918;-89
2024/01/25 01:32:26;;;;;;;24.33;4.90;;;;;;;7.90;100.00;96616.75;7399810;19;20380;-90
2024/01/25 01:34:53;;;;;;;15.73;4.50;;;;;;;8.11;100.00;96646.16;7401223;19;20373;-90
2024/01/25 01:37:22;;;;;;;14.27;3.73;;;;;;;7.61;100.00;96561.06;7400677;19;20367;-90
2024/01/25 01:39:49;;;;;;;17.87;4.50;;;;;;;7.42;100.00;96540.81;7399376;19;20385;-90
2024/01/25 01:42:17;;;;;;;21.00;5.07;;;;;;;7.96;100.00;96620.88;7399341;19;20745;-90
2024/01/25 01:44:45;;;;;;;13.27;4.17;;;;;;;7.69;100.00;96586.59;7398763;19;20393;-90
2024/01/25 01:47:13;;;;;;;12.83;4.80;;;;;;;8.09;100.00;96645.63;7398881;19;20499;-91
2024/01/25 01:49:41;;;;;;;9.23;3.67;;;;;;;7.83;100.00;96611.03;7397998;19;20464;-91
2024/01/25 01:52:11;;;;;;;20.50;4.07;;;;;;;8.25;100.00;96665.38;7398025;19;20467;-90
2024/01/25 01:54:40;;;;;;;22.23;4.60;;;;;;;7.71;100.00;96585.28;7399178;19;20391;-90
2024/01/25 01:57:08;;;;;;;14.33;4.20;;;;;;;7.76;100.00;96605.34;7398882;19;20384;-90
2024/01/25 01:59:36;;;;;;;8.80;3.90;;;;;;;7.49;100.00;96571.06;7398698;19;20444;-90
2024/01/25 02:02:03;;;;;;;22.57;4.20;;;;;;;7.42;100.00;96553.06;7421698;19;20369;-88
2024/01/25 02:04:32;;;;;;;16.37;4.90;;;;;;;7.40;100.00;96555.97;7425393;19;20412;-88
2024/01/25 02:07:03;;;;;;;20.13;4.60;;;;;;;8.20;100.00;96678.47;7420341;19;20369;-91
2024/01/25 02:09:47;;;;;;;22.47;4.53;;;;;;;7.53;100.00;96578.06;7399550;19;20409;-91
2024/01/25 02:12:19;;;;;;;21.23;4.63;;;;;;;7.56;100.00;96593.19;7400106;19;20435;-90
2024/01/25 02:14:48;;;;;;;17.13;3.93;;;;;;;7.67;100.00;96604.38;7398558;19;20369;-91
2024/01/25 02:17:15;;;;;;;13.07;4.93;;;;;;;7.42;100.00;96558.28;7397853;19;20394;-90
2024/01/25 02:19:43;;;;;;;26.33;4.60;;;;;;;7.18;100.00;96518.25;7399598;19;20402;-89
2024/01/25 02:22:11;;;;;;;16.80;4.10;;;;;;;7.15;100.00;96515.13;7397768;19;20444;-91
2024/01/25 02:24:38;;;;;;;16.13;3.37;;;;;;;7.49;100.00;96574.44;7397641;19;20381;-90
2024/01/25 02:27:06;;;;;;;19.60;4.27;;;;;;;7.31;100.00;96556.81;7397670;19;20365;-91
2024/01/25 02:29:38;;;;;;;15.17;5.30;;;;;;;7.46;100.00;96569.78;7396952;19;20424;-90
2024/01/25 02:32:07;;;;;;;15.67;3.97;;;;;;;7.39;100.00;96559.63;7397333;19;20413;-90
2024/01/25 02:34:34;;;;;;;14.97;5.27;;;;;;;7.54;100.00;96571.03;7398008;19;20372;-91
2024/01/25 02:37:02;;;;;;;15.50;4.17;;;;;;;7.44;100.00;96556.22;7398152;19;20395;-90
2024/01/25 02:39:30;;;;;;;11.43;3.83;;;;;;;7.60;100.00;96569.94;7397120;19;20389;-91
2024/01/25 02:41:58;;;;;;;22.17;4.80;;;;;;;7.92;100.00;96621.72;7397816;19;20384;-91
2024/01/25 02:44:25;;;;;;;13.57;4.33;;;;;;;7.71;100.00;96595.75;7397604;19;20401;-90
2024/01/25 02:46:53;;;;;;;11.97;4.37;;;;;;;7.51;100.00;96579.41;7397786;19;20369;-90
2024/01/25 02:49:21;;;;;;;10.30;4.40;;;;;;;7.45;100.00;96576.06;7396860;19;20864;-91
2024/01/25 02:51:49;;;;;;;19.80;4.50;;;;;;;7.03;100.00;96514.66;7397004;19;20410;-91
2024/01/25 02:54:16;;;;;;;12.60;4.23;;;;;;;7.74;100.00;96617.91;7395902;19;20433;-90
2024/01/25 02:56:44;;;;;;;12.60;3.60;;;;;;;7.61;100.00;96576.72;7397195;19;20373;-90
2024/01/25 02:59:11;;;;;;;10.13;4.03;;;;;;;7.77;100.00;96617.38;7397189;19;20377;-90
2024/01/25 03:01:44;;;;;;;16.13;3.40;;;;;;;7.44;100.00;96559.59;7397407;19;20365;-90
2024/01/25 03:04:12;;;;;;;15.63;4.03;;;;;;;7.70;100.00;96616.88;7397370;19;20372;-91
2024/01/25 03:06:40;;;;;;;15.73;4.50;;;;;;;7.84;100.00;96649.22;7396329;19;20393;-90
2024/01/25 03:09:08;;;;;;;13.10;5.07;;;;;;;7.83;100.00;96652.06;7397913;19;20422;-91
2024/01/25 03:11:35;;;;;;;15.17;4.70;;;;;;;8.20;100.00;96699.41;7399831;19;20406;-90
2024/01/25 03:14:03;;;;;;;17.53;4.43;;;;;;;7.57;100.00;96602.63;7403585;19;20662;-91
2024/01/25 03:16:30;;;;;;;33.10;6.37;;;;;;;7.38;100.00;96599.84;7403976;19;20862;-90
2024/01/25 03:18:58;;;;;;;13.30;4.70;;;;;;;7.41;100.00;96624.63;7404035;19;20364;-91
2024/01/25 03:21:34;;;;;;;17.47;3.83;;;;;;;7.66;100.00;96645.38;7403678;19;20468;-91
2024/01/25 03:24:10;;;;;;;11.80;4.97;;;;;;;7.43;100.00;96615.47;7403173;19;20720;-91
2024/01/25 03:26:39;;;;;;;17.33;4.67;;;;;;;7.67;100.00;96646.94;7404501;19;20460;-91
2024/01/25 03:29:06;;;;;;;16.00;5.00;;;;;;;7.25;100.00;96603.03;7404237;19;20376;-91
2024/01/25 03:31:35;;;;;;;13.17;5.77;;;;;;;7.62;100.00;96638.38;7400541;19;20384;-90
2024/01/25 03:34:04;;;;;;;24.83;5.40;;;;;;;8.07;100.00;96726.94;7400880;19;20417;-91
2024/01/25 03:36:33;;;;;;;14.30;6.20;;;;;;;7.83;100.00;96676.38;7403276;19;20444;-91
2024/01/25 03:39:00;;;;;;;12.23;4.10;;;;;;;7.68;100.00;96642.50;7403739;19;20357;-90
2024/01/25 03:41:29;;;;;;;14.80;4.37;;;;;;;7.44;100.00;96606.63;7403587;19;20733;-90
2024/01/25 03:43:56;;;;;;;15.97;5.10;;;;;;;7.41;100.00;96604.53;7401486;19;20699;-91
2024/01/25 03:46:24;;;;;;;15.80;4.40;;;;;;;7.49;100.00;96616.25;7403779;19;20373;-91
2024/01/25 03:48:54;;;;;;;19.10;6.03;;;;;;;7.36;100.00;96622.06;7402686;19;20401;-90
2024/01/25 03:51:23;;;;;;;14.83;4.60;;;;;;;7.79;100.00;96671.97;7401270;19;20373;-90
2024/01/25 03:53:52;;;;;;;13.40;4.03;;;;;;;7.68;100.00;96679.06;7401313;19;20411;-91
2024/01/25 03:56:20;;;;;;;14.90;4.73;;;;;;;7.66;100.00;96692.41;7403402;19;20911;-91
2024/01/25 03:58:47;;;;;;;13.33;3.80;;;;;;;7.76;100.00;96681.13;7402549;19;20397;-90
2024/01/25 04:01:14;;;;;;;24.30;5.80;;;;;;;6.85;100.00;96550.00;7402435;19;20380;-91
2024/01/25 04:03:42;;;;;;;27.33;7.33;;;;;;;7.41;100.00;96672.41;7400731;19;20445;-91
2024/01/25 04:06:10;;;;;;;17.87;5.17;;;;;;;8.21;100.00;96765.53;7402523;19;20352;-90
2024/01/25 04:08:38;;;;;;;12.43;4.00;;;;;;;7.62;100.00;96656.66;7402347;19;20468;-90
2024/01/25 04:11:05;;;;;;;9.90;4.37;;;;;;;7.81;100.00;96691.53;7400302;19;20691;-90
2024/01/25 04:13:33;;;;;;;9.70;5.80;;;;;;;8.23;100.00;96768.66;7401576;19;20504;-91
2024/01/25 04:16:00;;;;;;;17.20;4.93;;;;;;;7.55;100.00;96656.94;7403004;19;20384;-91
2024/01/25 04:18:28;;;;;;;18.00;4.60;;;;;;;7.63;100.00;96671.28;7402611;19;20424;-91
2024/01/25 04:20:55;;;;;;;12.30;4.87;;;;;;;7.67;100.00;96664.44;7404181;19;20390;-91
2024/01/25 04:23:23;;;;;;;16.60;5.27;;;;;;;7.26;100.00;96612.44;7397945;19;20409;-91
2024/01/25 04:25:51;;;;;;;13.93;5.20;;;;;;;7.40;100.00;96659.63;7401935;19;20854;-90
2024/01/25 04:28:19;;;;;;;15.03;5.03;;;;;;;7.57;100.00;96648.81;7403542;19;20867;-91
2024/01/25 04:30:47;;;;;;;18.17;4.80;;;;;;;7.90;100.00;96705.59;7402473;19;20380;-90
2024/01/25 04:33:14;;;;;;;16.93;4.83;;;;;;;7.19;100.00;96592.91;7400304;19;20408;-90
2024/01/25 04:35:43;;;;;;;17.47;5.40;;;;;;;7.35;100.00;96613.44;7401416;19;20369;-91
2024/01/25 04:38:11;;;;;;;22.53;6.73;;;;;;;7.41;100.00;96635.84;7402403;19;20440;-90
2024/01/25 04:40:38;;;;;;;10.37;4.70;;;;;;;7.86;100.00;96703.81;7401936;19;20882;-90
2024/01/25 04:43:06;;;;;;;25.40;5.50;;;;;;;7.68;100.00;96692.13;7400910;19;20396;-91
2024/01/25 04:45:33;;;;;;;18.73;5.47;;;;;;;7.33;100.00;96662.53;7401367;19;20345;-90
2024/01/25 04:48:00;;;;;;;17.10;4.93;;;;;;;6.56;100.00;96570.72;7400991;19;20405;-91
2024/01/25 04:50:28;;;;;;;10.30;3.37;;;;;;;6.53;100.00;96557.44;7400734;19;20381;-91
2024/01/25 04:52:55;;;;;;;13.70;4.90;;;;;;;6.90;100.00;96624.06;7399396;19;20409;-91
2024/01/25 04:55:23;;;;;;;18.30;4.60;;;;;;;6.84;100.00;96610.25;7401516;19;20885;-90
2024/01/25 04:57:53;;;;;;;12.17;5.47;;;;;;;7.51;100.00;96708.16;7400807;19;20392;-90
2024/01/25 05:00:22;;;;;;;17.33;5.90;;;;;;;7.59;100.00;96732.94;7400781;19;20375;-91
2024/01/25 05:02:49;;;;;;;15.07;4.37;;;;;;;7.53;100.00;96711.28;7400587;19;20435;-90
2024/01/25 05:05:17;;;;;;;12.20;4.50;;;;;;;7.12;100.00;96648.00;7400448;19;20436;-90
2024/01/25 05:07:44;;;;;;;21.43;4.63;;;;;;;7.73;100.00;96747.78;7400452;19;20385;-91
2024/01/25 05:10:12;;;;;;;17.87;5.73;;;;;;;7.48;100.00;96729.59;7400544;19;20468;-91
2024/01/25 05:12:40;;;;;;;13.40;4.23;;;;;;;6.88;100.00;96642.59;7400306;19;20543;-90
2024/01/25 05:15:07;;;;;;;18.60;5.73;;;;;;;6.78;100.00;96643.41;7400100;19;20389;-90
2024/01/25 05:17:35;;;;;;;17.10;5.73;;;;;;;7.78;100.00;96746.19;7400824;19;20472;-90
2024/01/25 05:20:03;;;;;;;8.50;4.77;;;;;;;7.47;100.00;96689.63;7400855;19;20381;-90
2024/01/25 05:22:30;;;;;;;10.80;3.67;;;;;;;7.64;100.00;96725.06;7399546;19;20743;-91
2024/01/25 05:24:57;;;;;;;13.00;4.53;;;;;;;7.25;100.00;96676.13;7400551;19;20381;-91
2024/01/25 05:27:25;;;;;;;13.03;5.67;;;;;;;7.52;100.00;96716.78;7400218;19;20365;-90
2024/01/25 05:29:52;;;;;;;14.80;4.07;;;;;;;7.89;100.00;96779.06;7400786;19;20385;-91
2024/01/25 05:32:21;;;;;;;19.67;6.70;;;;;;;7.35;100.00;96707.44;7398283;19;20381;-90
2024/01/25 05:34:48;;;;;;;18.00;5.63;;;;;;;6.98;100.00;96675.72;7398368;19;20388;-90
2024/01/25 05:37:16;;;;;;;14.93;4.83;;;;;;;6.92;100.00;96690.59;7399729;19;20406;-90
2024/01/25 05:39:43;;;;;;;9.40;5.40;;;;;;;6.76;100.00;96636.88;7400091;19;20894;-90
2024/01/25 05:42:10;;;;;;;18.47;8.57;;;;;;;7.26;100.00;96727.31;7399242;19;20361;-90
2024/01/25 05:44:38;;;;;;;17.20;5.40;;;;;;;6.87;100.00;96664.50;7400787;19;20885;-90
2024/01/25 05:47:05;;;;;;;16.83;5.47;;;;;;;6.84;100.00;96673.66;7399237;19;20411;-89
2024/01/25 05:49:33;;;;;;;21.23;6.13;;;;;;;6.94;100.00;96682.50;7399403;19;20400;-89
2024/01/25 05:52:00;;;;;;;17.90;6.67;;;;;;;7.32;100.00;96754.97;7396992;19;20405;-91
2024/01/25 05:54:28;;;;;;;19.50;6.60;;;;;;;6.86;100.00;96687.22;7397159;19;20408;-90
2024/01/25 05:56:55;;;;;;;12.83;5.47;;;;;;;6.70;100.00;96669.25;7399439;19;20397;-90
2024/01/25 05:59:23;;;;;;;18.07;7.80;;;;;;;6.95;100.00;96720.59;7401371;19;20360;-91
2024/01/25 06:01:50;;;;;;;16.07;5.80;;;;;;;6.60;100.00;96658.84;7398114;19;20419;-90
2024/01/25 06:04:19;;;;;;;13.33;6.83;;;;;;;6.55;100.00;96667.44;7396979;19;20417;-91
2024/01/25 06:06:46;;;;;;;18.97;7.57;;;;;;;6.91;100.00;96703.91;7398064;19;20365;-91
2024/01/25 06:09:15;;;;;;;19.77;6.10;;;;;;;6.59;100.00;96658.06;7399044;19;20402;-90
2024/01/25 06:11:46;;;;;;;16.93;6.30;;;;;;;7.05;100.00;96741.47;7397559;19;20402;-90
2024/01/25 06:14:14;;;;;;;17.93;6.60;;;;;;;6.20;100.00;96611.69;7396366;19;20479;-90
2024/01/25 06:16:41;;;;;;;16.03;7.07;;;;;;;6.67;100.00;96690.66;7398401;19;20380;-90
2024/01/25 06:19:09;;;;;;;23.20;9.70;;;;;;;5.75;100.00;96547.38;7397859;19;20381;-89
2024/01/25 06:21:37;;;;;;;30.73;11.10;;;;;;;7.37;100.00;96793.34;7397463;19;20376;-90
2024/01/25 06:24:05;;;;;;;23.47;9.63;;;;;;;7.26;100.00;96805.63;7396411;19;20397;-90
2024/01/25 06:26:33;;;;;;;23.53;10.30;;;;;;;6.15;100.00;96629.94;7398469;19;20397;-90
2024/01/25 06:29:01;;;;;;;25.33;6.30;;;;;;;5.71;100.00;96567.16;7397821;19;20395;-90
2024/01/25 06:31:28;;;;;;;25.33;9.20;;;;;;;6.82;100.00;96755.84;7396345;19;20405;-90
2024/01/25 06:33:56;;;;;;;17.47;7.33;;;;;;;6.99;100.00;96790.25;7396406;19;20753;-90
2024/01/25 06:36:24;;;;;;;13.70;6.83;;;;;;;6.61;100.00;96736.78;7397056;19;20473;-90
2024/01/25 06:38:52;;;;;;;15.17;7.87;;;;;;;6.26;100.00;96707.09;7397108;19;20377;-90
2024/01/25 06:41:19;;;;;;;22.97;6.00;;;;;;;6.88;100.00;96796.53;7398524;19;20445;-90
2024/01/25 06:43:48;;;;;;;20.40;6.83;;;;;;;6.86;100.00;96799.41;7396793;19;20416;-90
2024/01/25 06:46:15;;;;;;;16.97;6.03;;;;;;;6.55;100.00;96772.53;7395980;19;20417;-91
2024/01/25 06:49:01;;;;;;;17.50;5.50;;;;;;;6.47;100.00;96757.41;7397000;19;20363;-89
2024/01/25 06:51:29;;;;;;;15.47;5.97;;;;;;;6.31;100.00;96715.94;7397182;19;20368;-90
2024/01/25 06:53:56;;;;;;;20.77;6.43;;;;;;;6.70;100.00;96795.22;7396578;19;20491;-90
2024/01/25 06:56:24;;;;;;;20.87;5.90;;;;;;;6.80;100.00;96799.69;7396681;19;20392;-90
2024/01/25 06:58:51;;;;;;;11.17;5.07;;;;;;;6.01;100.00;96682.84;7396822;19;20393;-90
2024/01/25 07:01:23;;;;;;;11.17;4.00;;;;;;;6.81;100.00;96785.59;7396418;19;20417;-90
2024/01/25 07:03:51;;;;;;;13.00;5.20;;;;;;;6.76;100.00;96807.22;7395900;19;20427;-90
2024/01/25 07:06:19;;;;;;;29.50;7.83;;;;;;;6.00;100.00;96661.22;7398311;19;20374;-90
2024/01/25 07:08:47;;;;;;;24.17;6.17;;;;;;;6.48;100.00;96745.16;7396692;19;20436;-90
2024/01/25 07:11:14;;;;;;;11.87;4.67;;;;;;;6.34;100.00;96723.25;7395801;19;20405;-90
2024/01/25 07:13:42;;;;;;;15.73;4.97;;;;;;;6.17;100.00;96713.84;7395680;19;20408;-90
2024/01/25 07:16:09;;;;;;;19.30;4.87;;;;;;;6.41;100.00;96739.41;7396882;19;20373;-90
2024/01/25 07:18:37;;;;;;;24.87;6.23;;;;;;;6.77;100.00;96780.13;7396450;19;20452;-90
2024/01/25 07:21:04;;;;;;;21.83;5.73;;;;;;;6.47;100.00;96746.97;7396388;19;20409;-90
2024/01/25 07:23:34;;;;;;;11.53;5.23;;;;;;;6.32;100.00;96733.16;7395422;19;20438;-90
2024/01/25 07:26:02;;;;;;;14.67;5.00;;;;;;;7.06;100.00;96840.38;7396275;19;20387;-90
2024/01/25 07:28:30;;;;;;;11.00;4.37;;;;;;;6.56;100.00;96757.69;7395865;19;20397;-90
2024/01/25 07:30:57;;;;;;;12.60;4.90;;;;;;;6.66;100.00;96777.75;7395885;19;20759;-90
2024/01/25 07:33:25;;;;;;;20.57;5.90;;;;;;;7.19;100.00;96853.94;7394956;19;20675;-90
2024/01/25 07:35:52;;;;;;;24.30;6.10;;;;;;;6.70;100.00;96792.63;7395836;19;20386;-90
2024/01/25 07:38:20;;;;;;;19.23;6.83;;;;;;;6.50;100.00;96769.94;7396221;19;20891;-90
2024/01/25 07:40:47;;;;;;;15.27;5.73;;;;;;;6.62;100.00;96785.31;7396543;19;20380;-90
2024/01/25 07:43:15;;;;;;;18.57;5.83;;;;;;;6.92;100.00;96828.13;7395531;19;20417;-89
2024/01/25 07:45:42;;;;;;;14.60;4.80;;;;;;;6.49;100.00;96764.97;7395547;19;20343;-90
2024/01/25 07:48:10;;;;;;;16.77;5.67;;;;;;;6.77;100.00;96811.41;7395619;19;20387;-90
2024/01/25 07:50:41;;;;;;;13.83;5.10;;;;;;;6.48;100.00;96782.44;7396288;19;20389;-90
2024/01/25 07:53:12;;;;;;;14.37;4.87;;;;;;;6.62;100.00;96800.94;7394118;19;20781;-90
2024/01/25 07:55:39;;;;;;;13.70;4.40;;;;;;;6.72;100.00;96802.78;7396516;19;20374;-90
2024/01/25 07:58:06;;;;;;;22.80;5.50;;;;;;;7.18;100.00;96875.88;7399375;19;20422;-90
2024/01/25 08:00:34;;;;;;;22.17;11.37;;;;;;;6.74;100.00;96827.56;7403692;19;20369;-90
2024/01/25 08:03:03;;;;;;;16.03;7.23;;;;;;;7.41;100.00;96911.88;7401707;19;20424;-89
2024/01/25 08:05:30;;;;;;;15.50;5.83;;;;;;;6.94;100.00;96812.97;7403035;19;20386;-90
2024/01/25 08:08:11;;;;;;;18.10;6.20;;;;;;;7.12;100.00;96826.25;7402980;19;20380;-90
2024/01/25 08:10:39;;;;;;;23.40;6.63;;;;;;;7.29;100.00;96864.34;7402012;19;20402;-90
2024/01/25 08:13:06;;;;;;;9.47;4.43;;;;;;;7.12;100.00;96810.59;7399779;19;20373;-90
2024/01/25 08:15:34;;;;;;;18.40;5.80;;;;;;;7.18;100.00;96828.88;7402602;19;20368;-90
2024/01/25 08:18:02;;;;;;;31.07;6.13;;;;;;;6.58;100.00;96727.69;7401472;19;20392;-89
2024/01/25 08:20:31;;;;;;;14.80;5.40;;;;;;;7.16;100.00;96810.84;7401427;19;20854;-90
2024/01/25 08:22:59;;;;;;;17.70;4.67;;;;;;;7.30;100.00;96847.66;7401292;19;20437;-90
2024/01/25 08:25:27;;;;;;;13.50;5.47;;;;;;;7.18;100.00;96819.22;7401198;19;20409;-89
2024/01/25 08:27:54;;;;;;;22.30;7.53;;;;;;;7.18;100.00;96808.78;7402430;19;20396;-90
2024/01/25 08:30:22;;;;;;;18.47;6.17;;;;;;;6.87;100.00;96768.88;7401270;19;20396;-90
2024/01/25 08:32:51;;;;;;;16.63;5.40;;;;;;;7.49;100.00;96858.34;7400387;19;20982;-90
2024/01/25 08:35:22;;;;;;;14.30;5.47;;;;;;;7.31;100.00;96816.06;7403026;19;20368;-90
2024/01/25 08:37:50;;;;;;;13.90;4.83;;;;;;;7.75;100.00;96912.09;7402059;19;20390;-90
2024/01/25 08:40:21;;;;;;;17.77;5.63;;;;;;;7.31;100.00;96823.13;7403109;19;20459;-90
2024/01/25 08:42:54;;;;;;;13.83;5.53;;;;;;;7.37;100.00;96848.19;7401356;19;20377;-91
2024/01/25 08:45:21;;;;;;;12.03;5.73;;;;;;;7.21;100.00;96834.34;7399915;19;20862;-88
2024/01/25 08:47:49;;;;;;;26.23;5.77;;;;;;;7.07;100.00;96778.53;7399905;19;20385;-88
2024/01/25 08:50:16;;;;;;;17.97;6.07;;;;;;;7.34;100.00;96812.16;7400908;19;20385;-88
2024/01/25 08:52:44;;;;;;;15.07;4.90;;;;;;;7.39;100.00;96851.31;7398287;19;20420;-88
2024/01/25 08:55:11;;;;;;;9.40;4.67;;;;;;;7.55;100.00;96868.50;7400993;19;20384;-88
2024/01/25 08:57:40;;;;;;;12.83;5.10;;;;;;;7.30;100.00;96798.03;7400207;19;20703;-89
2024/01/25 09:00:10;;;;;;;14.53;5.30;;;;;;;7.68;100.00;96856.72;7399771;19;20394;-88
2024/01/25 09:02:38;;;;;;;7.60;5.50;;;;;;;8.01;100.00;96912.84;7399445;19;20366;-88
2024/01/25 09:05:07;;;;;;;16.67;5.50;;;;;;;7.33;100.00;96824.44;7400551;19;20437;-88
2024/01/25 09:07:34;;;;;;;11.20;5.47;;;;;;;7.37;100.00;96851.56;7399648;19;20373;-88
2024/01/25 09:10:04;;;;;;;16.57;6.43;;;;;;;7.29;100.00;96806.91;7398674;19;20902;-87
2024/01/25 09:12:32;;;;;;;18.57;6.07;;;;;;;7.91;100.00;96894.56;7397976;19;20404;-88
2024/01/25 09:15:00;;;;;;;14.73;4.50;;;;;;;7.42;100.00;96846.31;7399399;19;20885;-88
2024/01/25 09:17:27;;;;;;;16.40;6.17;;;;;;;7.68;100.00;96885.47;7400260;19;20395;-87
2024/01/25 09:19:58;;;;;;;16.07;6.90;;;;;;;7.32;100.00;96845.56;7399951;19;20377;-88
2024/01/25 09:22:26;;;;;;;11.27;6.57;;;;;;;7.25;100.00;96824.16;7399357;19;20381;-88
2024/01/25 09:24:54;;;;;;;16.97;5.93;;;;;;;7.59;100.00;96884.44;7409245;19;20399;-87
2024/01/25 09:27:21;;;;;;;12.10;6.00;;;;;;;7.60;100.00;96889.41;7422258;19;20361;-88
2024/01/25 09:29:49;;;;;;;21.50;9.57;;;;;;;7.35;100.00;96824.94;7417252;19;20400;-88
2024/01/25 09:32:17;;;;;;;19.53;7.53;;;;;;;7.85;100.00;96912.09;7398358;19;20377;-88
2024/01/25 09:34:44;;;;;;;13.57;4.80;;;;;;;7.39;100.00;96846.06;7398740;19;20398;-88
2024/01/25 09:37:12;;;;;;;14.20;6.23;;;;;;;7.44;100.00;96872.97;7398704;19;20429;-88
2024/01/25 09:39:42;;;;;;;12.10;5.83;;;;;;;7.30;100.00;96869.31;7399675;19;20865;-91
2024/01/25 09:42:14;;;;;;;18.87;5.63;;;;;;;7.15;100.00;96827.56;7400595;19;20373;-91
2024/01/25 09:44:45;;;;;;;11.80;4.37;;;;;;;7.87;100.00;96949.19;7400191;19;20364;-91
2024/01/25 09:47:28;;;;;;;13.60;5.07;;;;;;;7.72;100.00;96908.19;7400723;19;20678;-91
2024/01/25 09:49:59;;;;;;;12.63;4.97;;;;;;;7.70;100.00;96935.63;7400651;19;20381;-91
2024/01/25 09:52:30;;;;;;;14.20;5.23;;;;;;;8.06;100.00;96946.78;7399526;19;20391;-91
2024/01/25 09:55:01;;;;;;;12.83;6.13;;;;;;;8.17;100.00;96939.72;7400337;19;20663;-91
2024/01/25 09:57:31;;;;;;;8.87;4.43;;;;;;;7.86;100.00;96921.50;7399671;19;20379;-91
2024/01/25 09:59:59;;;;;;;13.07;5.00;;;;;;;8.01;100.00;96925.91;7399225;19;20380;-91
2024/01/25 10:02:27;;;;;;;15.23;4.70;;;;;;;7.95;100.00;96895.59;7398629;19;20373;-91
2024/01/25 10:04:55;;;;;;;15.80;5.33;;;;;;;7.98;100.00;96937.69;7398372;19;20373;-91
2024/01/25 10:07:39;;;;;;;23.67;6.60;;;;;;;8.13;100.00;96943.91;7398993;19;20361;-91
2024/01/25 10:10:08;;;;;;;17.73;4.50;;;;;;;7.09;100.00;96769.38;7398549;19;20385;-91
2024/01/25 10:12:37;;;;;;;18.37;6.00;;;;;;;7.85;100.00;96888.56;7397495;19;20385;-91
2024/01/25 10:15:06;;;;;;;13.90;6.03;;;;;;;8.04;100.00;96928.75;7398495;19;20766;-91
2024/01/25 10:17:33;;;;;;;15.20;5.30;;;;;;;8.62;100.00;97009.38;7398707;19;20377;-91
2024/01/25 10:20:24;;;;;;;16.87;5.23;;;;;;;8.58;100.00;97008.38;7396932;19;20365;-93
2024/01/25 10:22:52;;;;;;;15.70;4.83;;;;;;;7.57;100.00;96847.34;7396569;19;20413;-90
2024/01/25 10:25:23;;;;;;;16.20;4.93;;;;;;;8.41;100.00;96969.44;7398328;19;20433;-91
2024/01/25 10:27:51;;;;;;;8.03;4.13;;;;;;;8.06;100.00;96910.97;7397522;19;20854;-91
2024/01/25 10:30:19;;;;;;;18.63;5.10;;;;;;;8.04;100.00;96912.28;7397435;19;20410;-91
2024/01/25 10:32:50;;;;;;;8.53;3.77;;;;;;;7.73;100.00;96875.00;7396518;19;20413;-91
2024/01/25 10:35:20;;;;;;;17.83;6.30;;;;;;;7.89;100.00;96904.50;7397275;19;20447;-91
2024/01/25 10:37:52;;;;;;;10.90;4.13;;;;;;;8.25;100.00;96981.00;7397379;19;20452;-90
2024/01/25 10:40:21;;;;;;;22.07;5.00;;;;;;;8.67;100.00;97029.53;7398076;19;20402;-90
2024/01/25 10:43:04;;;;;;;12.43;4.83;;;;;;;8.23;100.00;96960.34;7398099;19;20405;-90
2024/01/25 10:45:31;;;;;;;8.17;4.10;;;;;;;8.62;100.00;97019.84;7397274;19;20377;-90
2024/01/25 10:47:59;;;;;;;14.87;4.73;;;;;;;8.36;100.00;96975.47;7397735;19;20452;-91
2024/01/25 10:50:27;;;;;;;7.97;4.40;;;;;;;7.77;100.00;96904.78;7396743;19;20380;-91
2024/01/25 10:52:56;;;;;;;19.33;4.13;;;;;;;7.84;100.00;96917.56;7395728;19;20440;-91
2024/01/25 10:55:25;;;;;;;12.60;3.53;;;;;;;7.94;100.00;96897.41;7397288;19;20368;-91
2024/01/25 10:57:53;;;;;;;11.23;3.90;;;;;;;7.62;100.00;96845.50;7401031;19;20373;-89
2024/01/25 11:00:21;;;;;;;15.00;3.70;;;;;;;8.42;100.00;96984.09;7397147;19;20369;-91
2024/01/25 11:02:51;;;;;;;9.63;3.23;;;;;;;7.93;100.00;96911.53;7397240;19;20434;-91
2024/01/25 11:05:31;;;;;;;10.60;4.03;;;;;;;8.13;100.00;96949.94;7398364;19;20366;-93
2024/01/25 11:08:03;;;;;;;10.47;3.37;;;;;;;8.76;100.00;97052.25;7398447;19;20361;-91
2024/01/25 11:10:37;;;;;;;12.90;4.10;;;;;;;8.59;100.00;97046.56;7399945;19;20368;-91
2024/01/25 11:13:16;;;;;;;11.20;3.20;;;;;;;8.79;100.00;97043.09;7396922;19;20621;-91
2024/01/25 11:15:44;;;;;;;11.83;3.20;;;;;;;7.82;100.00;96945.78;7396648;19;20387;-90
2024/01/25 11:18:12;;;;;;;5.30;4.30;;;;;;;7.94;100.00;96954.13;7396575;19;20729;-91
2024/01/25 11:20:40;;;;;;;11.03;3.27;;;;;;;8.05;100.00;96974.00;7395856;19;20465;-91
2024/01/25 11:23:09;;;;;;;7.10;2.93;;;;;;;7.90;100.00;96964.34;7395675;19;20735;-90
2024/01/25 11:25:37;;;;;;;10.23;3.40;;;;;;;7.64;100.00;96913.94;7397127;19;20405;-91
2024/01/25 11:28:06;;;;;;;9.00;2.90;;;;;;;8.33;100.00;97009.22;7396610;19;20375;-91
2024/01/25 11:30:34;;;;;;;9.20;3.80;;;;;;;8.46;100.00;97000.81;7395885;19;20385;-91
2024/01/25 11:33:07;;;;;;;14.43;3.80;;;;;;;8.13;100.00;96957.78;7397934;19;20517;-91
2024/01/25 11:35:36;;;;;;;13.37;3.90;;;;;;;8.61;100.00;97047.06;7404238;19;20394;-90